createdAt,value
2023-05-04T00:00:22.649Z,131.28
2023-05-04T00:01:22.672Z,131.29
2023-05-04T00:02:22.799Z,130.14
2023-05-04T00:03:22.831Z,131.30
2023-05-04T00:04:22.806Z,131.20
2023-05-04T00:05:22.801Z,131.47
2023-05-04T00:06:22.876Z,131.12
2023-05-04T00:07:22.898Z,131.37
2023-05-04T00:08:22.952Z,131.80
2023-05-04T00:09:23.008Z,130.91
2023-05-04T00:10:23.043Z,132.53
2023-05-04T00:11:23.093Z,132.04
2023-05-04T00:12:23.129Z,130.92
2023-05-04T00:13:23.178Z,132.43
2023-05-04T00:14:23.213Z,131.86
2023-05-04T00:15:23.254Z,131.04
2023-05-04T00:16:23.335Z,131.84
2023-05-04T00:17:23.367Z,132.20
2023-05-04T00:18:23.356Z,133.17
2023-05-04T00:19:23.423Z,132.24
2023-05-04T00:20:23.461Z,132.49
2023-05-04T00:21:23.491Z,132.13
2023-05-04T00:22:23.517Z,132.10
2023-05-04T00:23:23.571Z,132.78
2023-05-04T00:24:23.603Z,132.39
2023-05-04T00:25:23.650Z,131.85
2023-05-04T00:26:23.686Z,132.02
2023-05-04T00:27:23.765Z,132.05
2023-05-04T00:28:23.779Z,133.99
2023-05-04T00:29:23.819Z,133.23
2023-05-04T00:30:23.861Z,133.05
2023-05-04T00:31:23.948Z,132.40
2023-05-04T00:32:24.016Z,132.24
2023-05-04T00:33:23.992Z,133.23
2023-05-04T00:34:24.054Z,132.72
2023-05-04T00:35:24.059Z,131.91
2023-05-04T00:36:24.124Z,132.42
2023-05-04T00:37:24.155Z,132.52
2023-05-04T00:38:24.194Z,133.42
2023-05-04T00:39:24.279Z,132.58
2023-05-04T00:40:24.285Z,132.90
2023-05-04T00:41:24.351Z,133.15
2023-05-04T00:42:24.415Z,133.15
2023-05-04T00:43:24.410Z,133.63
2023-05-04T00:44:24.461Z,133.25
2023-05-04T00:45:24.487Z,131.92
2023-05-04T00:46:24.571Z,132.80
2023-05-04T00:47:24.714Z,133.08
2023-05-04T00:48:24.691Z,133.87
2023-05-04T00:49:24.664Z,133.22
2023-05-04T00:50:24.715Z,133.17
2023-05-04T00:51:24.779Z,133.29
2023-05-04T00:52:24.800Z,133.25
2023-05-04T00:53:24.865Z,133.36
2023-05-04T00:54:24.896Z,133.68
2023-05-04T00:55:24.922Z,133.28
2023-05-04T00:56:24.984Z,133.44
2023-05-04T00:57:25.030Z,133.90
2023-05-04T00:58:25.052Z,133.95
2023-05-04T00:59:25.126Z,133.34
2023-05-04T01:00:25.147Z,133.65
2023-05-04T01:01:25.306Z,132.86
2023-05-04T01:02:25.265Z,133.67
2023-05-04T01:03:25.386Z,132.95
2023-05-04T01:04:25.340Z,132.74
2023-05-04T01:05:25.386Z,134.36
2023-05-04T01:06:25.443Z,133.22
2023-05-04T01:07:25.501Z,134.64
2023-05-04T01:08:25.513Z,132.04
2023-05-04T01:09:25.582Z,134.66
2023-05-04T01:10:25.659Z,133.25
2023-05-04T01:11:25.725Z,133.82
2023-05-04T01:12:25.755Z,134.19
2023-05-04T01:13:25.810Z,133.19
2023-05-04T01:14:25.840Z,133.54
2023-05-04T01:15:25.896Z,134.55
2023-05-04T01:16:25.971Z,135.08
2023-05-04T01:17:26.030Z,134.22
2023-05-04T01:18:26.057Z,135.53
2023-05-04T01:19:26.126Z,134.32
2023-05-04T01:20:26.145Z,134.21
2023-05-04T01:21:26.212Z,135.27
2023-05-04T01:22:26.277Z,134.74
2023-05-04T01:23:26.323Z,133.90
2023-05-04T01:24:26.372Z,135.44
2023-05-04T01:25:26.421Z,134.05
2023-05-04T01:26:26.476Z,133.94
2023-05-04T01:27:26.551Z,134.11
2023-05-04T01:28:26.561Z,134.69
2023-05-04T01:29:26.631Z,134.71
2023-05-04T01:30:26.668Z,135.02
2023-05-04T01:31:26.889Z,135.37
2023-05-04T01:32:26.841Z,135.00
2023-05-04T01:33:26.853Z,135.09
2023-05-04T01:34:26.882Z,134.83
2023-05-04T01:35:26.934Z,134.04
2023-05-04T01:36:27.072Z,134.64
2023-05-04T01:37:27.057Z,136.53
2023-05-04T01:38:27.118Z,134.42
2023-05-04T01:39:27.157Z,135.14
2023-05-04T01:40:27.203Z,135.50
2023-05-04T01:41:27.308Z,134.87
2023-05-04T01:42:27.332Z,135.91
2023-05-04T01:43:27.365Z,135.27
2023-05-04T01:44:27.418Z,135.15
2023-05-04T01:45:27.468Z,135.37
2023-05-04T01:46:27.555Z,134.00
2023-05-04T01:47:27.606Z,134.54
2023-05-04T01:48:28.434Z,134.64
2023-05-04T01:49:27.706Z,135.65
2023-05-04T01:50:27.780Z,134.91
2023-05-04T01:51:27.791Z,134.61
2023-05-04T01:52:27.946Z,135.66
2023-05-04T01:53:27.922Z,134.70
2023-05-04T01:54:27.947Z,136.18
2023-05-04T01:55:28.013Z,135.11
2023-05-04T01:56:28.065Z,134.15
2023-05-04T01:57:28.125Z,135.28
2023-05-04T01:58:28.164Z,133.82
2023-05-04T01:59:28.239Z,134.43
2023-05-04T02:00:28.299Z,135.39
2023-05-04T02:01:28.338Z,135.50
2023-05-04T02:02:28.397Z,135.55
2023-05-04T02:03:28.451Z,134.99
2023-05-04T02:04:28.488Z,135.07
2023-05-04T02:05:28.526Z,135.80
2023-05-04T02:06:28.580Z,135.26
2023-05-04T02:07:28.633Z,135.32
2023-05-04T02:08:28.709Z,136.91
2023-05-04T02:09:28.740Z,136.15
2023-05-04T02:10:28.809Z,135.05
2023-05-04T02:11:28.880Z,135.66
2023-05-04T02:12:28.979Z,134.44
2023-05-04T02:13:28.983Z,136.70
2023-05-04T02:14:29.013Z,136.09
2023-05-04T02:15:29.101Z,135.48
2023-05-04T02:16:29.272Z,136.99
2023-05-04T02:17:29.217Z,134.89
2023-05-04T02:18:29.225Z,134.71
2023-05-04T02:19:29.288Z,135.92
2023-05-04T02:20:29.388Z,134.82
2023-05-04T02:21:29.406Z,134.94
2023-05-04T02:22:29.467Z,135.21
2023-05-04T02:23:29.507Z,135.14
2023-05-04T02:24:29.570Z,135.85
2023-05-04T02:25:29.638Z,137.24
2023-05-04T02:26:29.668Z,135.65
2023-05-04T02:27:29.731Z,135.86
2023-05-04T02:28:29.787Z,136.41
2023-05-04T02:29:29.911Z,136.20
2023-05-04T02:30:29.894Z,134.30
2023-05-04T02:31:29.990Z,135.83
2023-05-04T02:32:30.068Z,136.32
2023-05-04T02:33:30.068Z,137.61
2023-05-04T02:34:30.145Z,136.65
2023-05-04T02:35:30.179Z,137.32
2023-05-04T02:36:30.251Z,135.40
2023-05-04T02:37:30.336Z,136.10
2023-05-04T02:38:30.394Z,135.73
2023-05-04T02:39:30.458Z,135.39
2023-05-04T02:40:30.499Z,136.70
2023-05-04T02:41:30.556Z,136.69
2023-05-04T02:42:30.621Z,135.74
2023-05-04T02:43:30.693Z,136.20
2023-05-04T02:44:30.703Z,136.03
2023-05-04T02:45:30.828Z,134.73
2023-05-04T02:46:30.844Z,137.31
2023-05-04T02:47:30.994Z,136.49
2023-05-04T02:48:30.962Z,136.02
2023-05-04T02:49:31.022Z,135.32
2023-05-04T02:50:31.096Z,135.54
2023-05-04T02:51:31.132Z,136.67
2023-05-04T02:52:31.208Z,135.27
2023-05-04T02:53:31.233Z,134.73
2023-05-04T02:54:31.268Z,137.87
2023-05-04T02:55:31.328Z,136.43
2023-05-04T02:56:31.412Z,135.81
2023-05-04T02:57:31.471Z,135.90
2023-05-04T02:58:31.540Z,136.65
2023-05-04T02:59:31.584Z,136.44
2023-05-04T03:00:31.618Z,135.86
2023-05-04T03:02:31.804Z,137.32
2023-05-04T03:03:31.853Z,135.73
2023-05-04T03:04:31.913Z,135.26
2023-05-04T03:05:31.928Z,135.29
2023-05-04T03:06:31.997Z,136.62
2023-05-04T03:07:32.067Z,137.52
2023-05-04T03:08:32.130Z,136.80
2023-05-04T03:09:32.165Z,136.70
2023-05-04T03:10:32.256Z,135.74
2023-05-04T03:11:32.418Z,135.68
2023-05-04T03:12:32.454Z,134.18
2023-05-04T03:13:32.444Z,135.71
2023-05-04T03:14:32.516Z,135.57
2023-05-04T03:15:32.533Z,135.92
2023-05-04T03:16:32.639Z,136.57
2023-05-04T03:17:32.691Z,137.29
2023-05-04T03:19:51.702Z,25.00
2023-05-04T03:20:51.660Z,25.00
2023-05-04T03:21:51.663Z,25.00
2023-05-04T03:22:51.631Z,25.00
2023-05-04T03:23:51.710Z,25.00
2023-05-04T03:24:51.778Z,26.43
2023-05-04T03:25:51.839Z,26.29
2023-05-04T03:26:51.876Z,26.66
2023-05-04T03:27:51.945Z,29.70
2023-05-04T03:28:52.012Z,26.49
2023-05-04T03:29:52.093Z,27.54
2023-05-04T03:30:52.160Z,28.51
2023-05-04T03:31:52.215Z,25.00
2023-05-04T03:32:52.248Z,28.04
2023-05-04T03:33:52.306Z,30.61
2023-05-04T03:34:52.377Z,27.18
2023-05-04T03:35:52.405Z,27.32
2023-05-04T03:36:52.507Z,25.77
2023-05-04T03:37:52.540Z,31.22
2023-05-04T03:38:52.584Z,28.27
2023-05-04T03:39:52.656Z,27.20
2023-05-04T03:40:52.742Z,26.46
2023-05-04T03:41:52.821Z,30.11
2023-05-04T03:42:52.916Z,26.80
2023-05-04T03:43:52.903Z,28.69
2023-05-04T03:44:52.979Z,29.69
2023-05-04T03:45:53.049Z,29.22
2023-05-04T03:46:53.093Z,27.41
2023-05-04T03:47:53.228Z,28.66
2023-05-04T03:48:53.210Z,28.54
2023-05-04T03:49:53.256Z,28.81
2023-05-04T03:50:53.335Z,29.30
2023-05-04T03:51:53.399Z,27.98
2023-05-04T03:52:53.481Z,26.50
2023-05-04T03:53:53.531Z,26.05
2023-05-04T03:54:53.564Z,27.29
2023-05-04T03:55:53.630Z,28.95
2023-05-04T03:56:53.708Z,28.60
2023-05-04T03:57:53.776Z,29.84
2023-05-04T03:58:53.856Z,26.88
2023-05-04T03:59:55.592Z,27.79
2023-05-04T04:00:53.879Z,28.72
2023-05-04T04:01:53.887Z,27.99
2023-05-04T04:02:53.934Z,27.62
2023-05-04T04:03:53.926Z,25.00
2023-05-04T04:04:53.849Z,29.70
2023-05-04T04:05:53.873Z,27.42
2023-05-04T04:06:53.835Z,27.72
2023-05-04T04:07:53.849Z,28.67
2023-05-04T04:08:53.818Z,30.63
2023-05-04T04:09:53.861Z,27.00
2023-05-04T04:10:53.813Z,29.13
2023-05-04T04:11:53.831Z,27.53
2023-05-04T04:12:53.863Z,26.31
2023-05-04T04:13:53.787Z,31.82
2023-05-04T04:14:53.797Z,27.95
2023-05-04T04:15:53.962Z,28.91
2023-05-04T04:16:53.789Z,26.77
2023-05-04T04:17:53.955Z,26.99
2023-05-04T04:18:53.741Z,27.22
2023-05-04T04:19:53.762Z,27.60
2023-05-04T04:20:53.733Z,27.20
2023-05-04T04:21:53.781Z,26.66
2023-05-04T04:22:53.716Z,29.54
2023-05-04T04:23:53.748Z,27.32
2023-05-04T04:24:53.705Z,27.52
2023-05-04T04:25:53.696Z,26.35
2023-05-04T04:26:53.713Z,26.85
2023-05-04T04:27:53.717Z,27.68
2023-05-04T04:28:53.686Z,27.72
2023-05-04T04:29:53.658Z,29.21
2023-05-04T04:30:53.661Z,27.84
2023-05-04T04:31:53.696Z,27.89
2023-05-04T04:32:53.692Z,28.76
2023-05-04T04:33:53.638Z,28.56
2023-05-04T04:34:53.634Z,28.68
2023-05-04T04:35:53.624Z,28.86
2023-05-04T04:36:53.633Z,28.81
2023-05-04T04:37:53.632Z,30.97
2023-05-04T04:38:53.624Z,27.79
2023-05-04T04:39:53.684Z,27.43
2023-05-04T04:40:53.756Z,25.16
2023-05-04T04:41:53.815Z,27.34
2023-05-04T04:42:53.861Z,30.10
2023-05-04T04:43:53.928Z,27.13
2023-05-04T04:44:53.953Z,28.27
2023-05-04T04:45:53.987Z,25.53
2023-05-04T04:46:54.034Z,25.00
2023-05-04T04:47:54.082Z,25.00
2023-05-04T04:48:54.021Z,27.03
2023-05-04T04:49:54.097Z,27.60
2023-05-04T04:50:54.138Z,25.00
2023-05-04T04:51:54.200Z,33.85
2023-05-04T04:52:54.276Z,26.97
2023-05-04T04:53:54.284Z,30.23
2023-05-04T04:54:54.288Z,27.17
2023-05-04T04:55:54.327Z,28.04
2023-05-04T04:56:54.363Z,25.49
2023-05-04T04:57:54.337Z,29.38
2023-05-04T04:58:54.321Z,26.26
2023-05-04T04:59:54.347Z,27.42
2023-05-04T05:00:54.433Z,25.46
2023-05-04T05:01:54.483Z,27.74
2023-05-04T05:02:54.550Z,25.67
2023-05-04T05:03:54.553Z,27.94
2023-05-04T05:04:54.685Z,25.36
2023-05-04T05:05:54.683Z,28.01
2023-05-04T05:06:54.717Z,28.41
2023-05-04T05:07:54.801Z,27.25
2023-05-04T05:08:54.844Z,27.00
2023-05-04T05:09:54.878Z,29.18
2023-05-04T05:10:54.931Z,26.17
2023-05-04T05:11:54.991Z,27.01
2023-05-04T05:12:55.073Z,27.32
2023-05-04T05:13:55.046Z,25.35
2023-05-04T05:14:55.089Z,26.28
2023-05-04T05:15:55.120Z,26.80
2023-05-04T05:16:55.231Z,26.06
2023-05-04T05:17:55.230Z,25.00
2023-05-04T05:18:55.226Z,27.32
2023-05-04T05:19:55.271Z,25.99
2023-05-04T05:20:55.254Z,25.33
2023-05-04T05:21:55.244Z,26.57
2023-05-04T05:22:55.255Z,26.11
2023-05-04T05:23:55.274Z,29.75
2023-05-04T05:24:55.305Z,27.28
2023-05-04T05:25:55.286Z,25.00
2023-05-04T05:26:55.274Z,26.18
2023-05-04T05:27:55.333Z,25.11
2023-05-04T05:28:55.278Z,26.23
2023-05-04T05:29:55.280Z,27.17
2023-05-04T05:30:55.329Z,25.34
2023-05-04T05:31:55.260Z,26.40
2023-05-04T05:32:55.390Z,28.81
2023-05-04T05:33:55.293Z,26.97
2023-05-04T05:34:55.294Z,30.27
2023-05-04T05:35:55.329Z,29.97
2023-05-04T05:36:55.320Z,31.80
2023-05-04T05:37:55.446Z,33.40
2023-05-04T05:38:55.346Z,39.23
2023-05-04T05:39:55.339Z,41.77
2023-05-04T05:40:55.412Z,44.07
2023-05-04T05:41:55.369Z,49.04
2023-05-04T05:42:55.399Z,47.79
2023-05-04T05:43:55.414Z,76.82
2023-05-04T05:44:55.504Z,79.49
2023-05-04T05:45:55.505Z,94.70
2023-05-04T05:46:55.484Z,111.28
2023-05-04T05:47:55.682Z,125.06
2023-05-04T05:48:55.572Z,120.97
2023-05-04T05:49:55.522Z,135.98
2023-05-04T05:50:55.552Z,140.11
2023-05-04T05:51:55.560Z,144.57
2023-05-04T05:52:55.581Z,149.57
2023-05-04T05:53:55.565Z,155.37
2023-05-04T05:54:55.616Z,164.12
2023-05-04T05:55:55.610Z,169.95
2023-05-04T05:56:55.626Z,173.24
2023-05-04T05:57:55.654Z,175.97
2023-05-04T05:58:55.643Z,186.75
2023-05-04T05:59:55.689Z,183.33
2023-05-04T06:00:55.712Z,191.38
2023-05-04T06:01:55.781Z,197.49
2023-05-04T06:02:56.038Z,196.34
2023-05-04T06:03:55.981Z,198.04
2023-05-04T06:04:55.971Z,194.71
2023-05-04T06:05:55.903Z,196.91
2023-05-04T06:06:55.928Z,203.25
2023-05-04T06:07:55.993Z,209.41
2023-05-04T06:08:56.288Z,208.70
2023-05-04T06:09:56.064Z,211.43
2023-05-04T06:10:56.134Z,213.94
2023-05-04T06:11:56.198Z,215.50
2023-05-04T06:12:56.277Z,220.32
2023-05-04T06:13:56.305Z,219.96
2023-05-04T06:14:56.366Z,221.20
2023-05-04T06:15:56.456Z,223.66
2023-05-04T06:16:56.481Z,226.34
2023-05-04T06:17:56.594Z,226.58
2023-05-04T06:18:56.561Z,224.75
2023-05-04T06:19:56.706Z,225.32
2023-05-04T06:20:56.674Z,228.63
2023-05-04T06:21:56.756Z,225.05
2023-05-04T06:22:56.802Z,222.43
2023-05-04T06:23:56.827Z,226.81
2023-05-04T06:25:01.554Z,224.52
2023-05-04T06:25:57.903Z,224.73
2023-05-04T06:26:56.877Z,224.99
2023-05-04T06:27:56.907Z,225.32
2023-05-04T06:28:56.892Z,228.19
2023-05-04T06:29:56.875Z,229.94
2023-05-04T06:30:56.847Z,231.49
2023-05-04T06:31:56.940Z,229.79
2023-05-04T06:32:56.852Z,231.48
2023-05-04T06:33:56.925Z,231.20
2023-05-04T06:34:56.949Z,232.64
2023-05-04T06:35:57.028Z,230.34
2023-05-04T06:36:57.136Z,229.71
2023-05-04T06:37:57.474Z,229.14
2023-05-04T06:38:57.253Z,235.30
2023-05-04T06:39:57.239Z,236.50
2023-05-04T06:40:57.307Z,235.21
2023-05-04T06:41:57.403Z,236.35
2023-05-04T06:42:57.444Z,235.27
2023-05-04T06:43:58.859Z,236.88
2023-05-04T06:44:57.518Z,236.01
2023-05-04T06:45:57.697Z,235.86
2023-05-04T06:46:57.722Z,235.35
2023-05-04T06:47:57.846Z,239.07
2023-05-04T06:48:57.822Z,234.49
2023-05-04T06:49:57.866Z,238.97
2023-05-04T06:50:58.244Z,240.18
2023-05-04T06:51:57.933Z,237.50
2023-05-04T06:52:57.940Z,237.15
2023-05-04T06:53:57.989Z,235.38
2023-05-04T06:54:58.072Z,237.05
2023-05-04T06:55:58.095Z,242.55
2023-05-04T06:56:58.149Z,239.33
2023-05-04T06:57:58.221Z,237.74
2023-05-04T06:58:58.331Z,235.98
2023-05-04T06:59:58.396Z,240.63
2023-05-04T07:00:58.365Z,245.47
2023-05-04T07:01:58.419Z,236.76
2023-05-04T07:02:58.432Z,244.56
2023-05-04T07:03:58.597Z,244.29
2023-05-04T07:04:58.522Z,244.83
2023-05-04T07:05:58.544Z,236.70
2023-05-04T07:06:58.574Z,239.14
2023-05-04T07:07:58.550Z,238.49
2023-05-04T07:08:58.581Z,245.94
2023-05-04T07:09:58.618Z,248.68
2023-05-04T07:10:58.588Z,238.97
2023-05-04T07:11:58.644Z,244.62
2023-05-04T07:12:58.698Z,244.91
2023-05-04T07:13:58.695Z,243.23
2023-05-04T07:14:58.746Z,233.12
2023-05-04T07:15:58.786Z,235.64
2023-05-04T07:16:58.804Z,238.86
2023-05-04T07:17:59.004Z,244.07
2023-05-04T07:18:58.924Z,247.21
2023-05-04T07:19:59.003Z,243.57
2023-05-04T07:21:16.047Z,239.26
2023-05-04T07:21:59.971Z,239.28
2023-05-04T07:22:59.009Z,238.37
2023-05-04T07:23:58.973Z,231.94
2023-05-04T07:24:59.004Z,239.56
2023-05-04T07:25:59.013Z,236.18
2023-05-04T07:26:59.036Z,239.49
2023-05-04T07:27:59.050Z,236.95
2023-05-04T07:28:58.927Z,241.73
2023-05-04T07:29:58.922Z,236.70
2023-05-04T07:30:58.950Z,233.71
2023-05-04T07:31:58.965Z,236.46
2023-05-04T07:32:59.039Z,232.71
2023-05-04T07:33:59.115Z,241.60
2023-05-04T07:34:59.137Z,227.69
2023-05-04T07:35:59.089Z,211.80
2023-05-04T07:36:59.101Z,216.70
2023-05-04T07:37:59.994Z,220.59
2023-05-04T07:38:59.174Z,212.59
2023-05-04T07:39:59.121Z,189.27
2023-05-04T07:40:59.129Z,206.83
2023-05-04T07:41:59.135Z,208.06
2023-05-04T07:42:59.182Z,206.61
2023-05-04T07:43:59.499Z,211.94
2023-05-04T07:44:59.191Z,212.35
2023-05-04T07:45:59.234Z,208.18
2023-05-04T07:46:59.263Z,203.69
2023-05-04T07:47:59.520Z,194.64
2023-05-04T07:48:59.353Z,144.81
2023-05-04T07:49:59.422Z,151.71
2023-05-04T07:50:59.409Z,162.39
2023-05-04T07:51:59.438Z,165.44
2023-05-04T07:52:59.544Z,175.35
2023-05-04T07:53:59.578Z,148.01
2023-05-04T07:54:59.658Z,153.52
2023-05-04T07:55:59.682Z,151.85
2023-05-04T07:56:59.753Z,159.74
2023-05-04T07:57:59.840Z,152.16
2023-05-04T07:58:59.876Z,141.66
2023-05-04T07:59:59.967Z,153.50
2023-05-04T08:01:00.057Z,156.40
2023-05-04T08:02:00.121Z,150.38
2023-05-04T08:03:00.189Z,150.36
2023-05-04T08:04:00.246Z,149.50
2023-05-04T08:05:00.245Z,183.98
2023-05-04T08:06:00.312Z,175.74
2023-05-04T08:07:00.388Z,151.16
2023-05-04T08:08:00.467Z,153.99
2023-05-04T08:09:00.499Z,127.82
2023-05-04T08:10:00.564Z,96.56
2023-05-04T08:11:15.929Z,114.15
2023-05-04T08:12:01.620Z,114.67
2023-05-04T08:13:00.647Z,92.28
2023-05-04T08:14:00.602Z,94.94
2023-05-04T08:15:00.599Z,103.30
2023-05-04T08:16:00.678Z,102.20
2023-05-04T08:17:00.574Z,122.52
2023-05-04T08:18:00.675Z,137.71
2023-05-04T08:19:00.650Z,145.27
2023-05-04T08:20:00.640Z,116.23
2023-05-04T08:21:00.717Z,122.61
2023-05-04T08:22:00.769Z,113.81
2023-05-04T08:23:01.007Z,118.38
2023-05-04T08:24:00.920Z,91.55
2023-05-04T08:25:00.992Z,103.95
2023-05-04T08:26:01.000Z,106.23
2023-05-04T08:27:07.993Z,97.92
2023-05-04T08:28:02.503Z,98.16
2023-05-04T08:29:01.513Z,98.61
2023-05-04T08:30:01.080Z,87.49
2023-05-04T08:31:01.044Z,95.61
2023-05-04T08:32:01.160Z,95.10
2023-05-04T08:33:01.074Z,87.57
2023-05-04T08:34:01.010Z,87.71
2023-05-04T08:35:01.025Z,93.13
2023-05-04T08:36:01.130Z,83.54
2023-05-04T08:37:01.118Z,75.54
2023-05-04T08:38:01.539Z,73.68
2023-05-04T08:39:01.517Z,55.28
2023-05-04T08:40:01.224Z,51.87
2023-05-04T08:41:01.292Z,39.96
2023-05-04T08:42:01.162Z,32.40
2023-05-04T08:43:01.168Z,47.30
2023-05-04T08:44:01.521Z,31.11
2023-05-04T08:45:01.290Z,37.19
2023-05-04T08:46:01.196Z,47.29
2023-05-04T08:47:01.160Z,52.16
2023-05-04T08:48:01.364Z,64.65
2023-05-04T08:49:01.207Z,65.36
2023-05-04T08:50:01.248Z,44.51
2023-05-04T08:51:01.178Z,42.74
2023-05-04T08:52:01.196Z,31.81
2023-05-04T08:53:01.195Z,14.67
2023-05-04T08:54:01.216Z,22.16
2023-05-04T08:55:01.208Z,27.14
2023-05-04T08:56:01.245Z,19.92
2023-05-04T08:57:01.209Z,22.82
2023-05-04T08:58:01.231Z,28.05
2023-05-04T08:59:01.198Z,30.47
2023-05-04T09:00:01.251Z,32.54
2023-05-04T09:01:01.407Z,33.23
2023-05-04T09:02:01.263Z,28.75
2023-05-04T09:03:01.325Z,25.00
2023-05-04T09:04:01.485Z,28.89
2023-05-04T09:05:01.243Z,23.46
2023-05-04T09:06:01.253Z,27.71
2023-05-04T09:07:01.283Z,29.15
2023-05-04T09:08:01.296Z,26.80
2023-05-04T09:09:01.303Z,26.24
2023-05-04T09:10:01.305Z,19.69
2023-05-04T09:11:01.340Z,25.18
2023-05-04T09:12:01.414Z,27.27
2023-05-04T09:13:01.427Z,31.78
2023-05-04T09:14:01.448Z,24.88
2023-05-04T09:15:01.469Z,25.22
2023-05-04T09:16:01.478Z,23.33
2023-05-04T09:17:01.502Z,28.41
2023-05-04T09:18:01.516Z,35.55
2023-05-04T09:19:01.501Z,31.36
2023-05-04T09:20:01.527Z,24.82
2023-05-04T09:21:01.568Z,25.03
2023-05-04T09:22:01.595Z,25.00
2023-05-04T09:23:01.606Z,25.69
2023-05-04T09:24:01.734Z,25.00
2023-05-04T09:25:01.669Z,27.92
2023-05-04T09:26:01.681Z,31.42
2023-05-04T09:27:01.696Z,48.45
2023-05-04T09:28:01.730Z,64.09
2023-05-04T09:29:01.735Z,80.62
2023-05-04T09:30:01.777Z,87.99
2023-05-04T09:31:02.002Z,81.95
2023-05-04T09:32:01.812Z,83.96
2023-05-04T09:33:01.834Z,87.55
2023-05-04T09:34:01.815Z,82.71
2023-05-04T09:35:01.848Z,85.81
2023-05-04T09:36:01.805Z,98.56
2023-05-04T09:37:01.951Z,99.60
2023-05-04T09:38:01.871Z,112.97
2023-05-04T09:39:01.816Z,118.80
2023-05-04T09:40:01.904Z,124.59
2023-05-04T09:41:01.817Z,122.24
2023-05-04T09:42:01.841Z,122.07
2023-05-04T09:43:01.825Z,135.86
2023-05-04T09:44:01.827Z,132.46
2023-05-04T09:45:01.953Z,141.86
2023-05-04T09:46:01.925Z,135.39
2023-05-04T09:47:01.911Z,83.57
2023-05-04T09:48:01.957Z,81.18
2023-05-04T09:49:01.939Z,102.33
2023-05-04T09:50:01.978Z,82.73
2023-05-04T09:51:01.908Z,87.07
2023-05-04T09:52:01.882Z,89.09
2023-05-04T09:53:01.873Z,106.89
2023-05-04T09:54:01.891Z,111.71
2023-05-04T09:55:01.890Z,106.34
2023-05-04T09:56:03.887Z,114.87
2023-05-04T09:57:01.909Z,123.42
2023-05-04T09:58:01.932Z,111.22
2023-05-04T09:59:01.903Z,119.05
2023-05-04T10:00:01.899Z,103.65
2023-05-04T10:01:01.887Z,112.56
2023-05-04T10:02:10.625Z,130.42
2023-05-04T10:03:02.899Z,130.74
2023-05-04T10:04:02.040Z,132.79
2023-05-04T10:05:01.919Z,136.80
2023-05-04T10:06:01.870Z,143.33
2023-05-04T10:07:01.826Z,154.40
2023-05-04T10:08:01.842Z,158.28
2023-05-04T10:09:01.894Z,159.98
2023-05-04T10:10:01.913Z,163.46
2023-05-04T10:11:01.892Z,166.55
2023-05-04T10:12:01.953Z,167.95
2023-05-04T10:13:02.016Z,161.69
2023-05-04T10:14:02.053Z,170.75
2023-05-04T10:15:02.214Z,178.00
2023-05-04T10:16:02.241Z,178.86
2023-05-04T10:17:02.218Z,183.04
2023-05-04T10:18:02.387Z,184.29
2023-05-04T10:19:02.360Z,175.28
2023-05-04T10:20:02.461Z,180.61
2023-05-04T10:21:02.458Z,182.61
2023-05-04T10:22:02.528Z,180.57
2023-05-04T10:23:02.576Z,184.16
2023-05-04T10:24:02.661Z,186.33
2023-05-04T10:25:02.821Z,187.44
2023-05-04T10:26:02.748Z,186.65
2023-05-04T10:27:02.806Z,171.98
2023-05-04T10:28:02.824Z,145.83
2023-05-04T10:29:02.865Z,138.08
2023-05-04T10:30:02.857Z,140.98
2023-05-04T10:31:02.924Z,129.69
2023-05-04T10:32:03.169Z,130.35
2023-05-04T10:33:03.056Z,130.19
2023-05-04T10:34:03.563Z,144.04
2023-05-04T10:35:03.453Z,162.39
2023-05-04T10:36:03.219Z,157.36
2023-05-04T10:37:03.231Z,164.42
2023-05-04T10:38:03.311Z,168.73
2023-05-04T10:39:03.367Z,168.99
2023-05-04T10:40:03.364Z,148.84
2023-05-04T10:41:03.425Z,133.36
2023-05-04T10:42:03.454Z,70.00
2023-05-04T10:43:03.485Z,64.10
2023-05-04T10:44:03.489Z,62.56
2023-05-04T10:45:03.850Z,67.48
2023-05-04T10:46:03.562Z,69.15
2023-05-04T10:47:03.477Z,51.38
2023-05-04T10:48:03.506Z,58.09
2023-05-04T10:49:03.549Z,64.34
2023-05-04T10:50:03.467Z,67.51
2023-05-04T10:51:03.518Z,69.64
2023-05-04T10:52:03.545Z,71.90
2023-05-04T10:53:03.622Z,93.96
2023-05-04T10:54:03.676Z,91.19
2023-05-04T10:55:03.906Z,90.28
2023-05-04T10:56:03.797Z,81.54
2023-05-04T10:57:03.849Z,99.63
2023-05-04T10:58:03.870Z,100.23
2023-05-04T10:59:03.932Z,97.93
2023-05-04T11:00:03.959Z,112.01
2023-05-04T11:01:04.041Z,115.25
2023-05-04T11:02:04.185Z,119.69
2023-05-04T11:03:04.405Z,117.30
2023-05-04T11:04:04.199Z,111.13
2023-05-04T11:05:04.540Z,105.12
2023-05-04T11:06:04.305Z,110.71
2023-05-04T11:07:04.365Z,114.37
2023-05-04T11:08:04.426Z,124.43
2023-05-04T11:09:04.491Z,127.77
2023-05-04T11:10:04.547Z,123.82
2023-05-04T11:11:04.586Z,110.74
2023-05-04T11:12:04.677Z,118.75
2023-05-04T11:13:06.404Z,72.58
2023-05-04T11:14:05.196Z,49.85
2023-05-04T11:15:05.193Z,50.21
2023-05-04T11:16:04.967Z,53.84
2023-05-04T11:17:07.423Z,76.83
2023-05-04T11:18:06.047Z,77.25
2023-05-04T11:19:04.986Z,79.08
2023-05-04T11:20:05.103Z,85.66
2023-05-04T11:21:04.968Z,95.76
2023-05-04T11:22:04.978Z,107.56
2023-05-04T11:23:04.962Z,112.06
2023-05-04T11:24:04.959Z,105.44
2023-05-04T11:25:05.097Z,107.26
2023-05-04T11:26:04.994Z,114.88
2023-05-04T11:27:05.035Z,113.48
2023-05-04T11:28:05.102Z,113.64
2023-05-04T11:29:05.157Z,114.99
2023-05-04T11:30:05.207Z,124.19
2023-05-04T11:31:05.235Z,129.78
2023-05-04T11:32:05.236Z,130.72
2023-05-04T11:33:05.380Z,131.28
2023-05-04T11:34:05.320Z,131.95
2023-05-04T11:35:05.636Z,134.22
2023-05-04T11:36:05.362Z,139.89
2023-05-04T11:37:06.086Z,135.27
2023-05-04T11:38:05.351Z,138.61
2023-05-04T11:39:05.604Z,145.07
2023-05-04T11:40:05.357Z,143.58
2023-05-04T11:41:05.352Z,139.34
2023-05-04T11:42:05.349Z,146.16
2023-05-04T11:43:05.358Z,150.67
2023-05-04T11:44:05.603Z,153.17
2023-05-04T11:45:05.555Z,152.89
2023-05-04T11:46:05.365Z,153.61
2023-05-04T11:47:05.348Z,155.42
2023-05-04T11:48:05.403Z,156.60
2023-05-04T11:49:05.623Z,159.06
2023-05-04T11:50:05.361Z,158.36
2023-05-04T11:51:05.325Z,159.90
2023-05-04T11:52:05.328Z,162.90
2023-05-04T11:53:05.337Z,164.02
2023-05-04T11:54:05.374Z,167.00
2023-05-04T11:55:05.648Z,164.05
2023-05-04T11:56:05.341Z,163.32
2023-05-04T11:57:05.319Z,163.32
2023-05-04T11:58:05.343Z,162.63
2023-05-04T11:59:05.321Z,163.80
2023-05-04T12:00:05.343Z,167.05
2023-05-04T12:01:05.316Z,166.86
2023-05-04T12:02:05.329Z,168.82
2023-05-04T12:03:05.418Z,169.28
2023-05-04T12:04:05.489Z,168.01
2023-05-04T12:05:05.573Z,166.60
2023-05-04T12:06:05.680Z,170.76
2023-05-04T12:07:05.355Z,170.90
2023-05-04T12:08:05.326Z,170.36
2023-05-04T12:09:05.375Z,173.78
2023-05-04T12:10:05.315Z,169.38
2023-05-04T12:11:05.328Z,170.16
2023-05-04T12:12:05.335Z,173.83
2023-05-04T12:13:05.361Z,177.59
2023-05-04T12:14:05.327Z,179.44
2023-05-04T12:15:05.586Z,173.66
2023-05-04T12:16:05.368Z,171.37
2023-05-04T12:17:05.336Z,175.91
2023-05-04T12:18:05.379Z,173.64
2023-05-04T12:19:05.422Z,176.60
2023-05-04T12:20:05.354Z,177.60
2023-05-04T12:21:05.361Z,177.16
2023-05-04T12:22:05.393Z,179.04
2023-05-04T12:23:05.334Z,182.51
2023-05-04T12:24:05.422Z,184.93
2023-05-04T12:25:05.522Z,183.05
2023-05-04T12:26:05.348Z,183.19
2023-05-04T12:27:05.347Z,181.43
2023-05-04T12:28:05.383Z,184.21
2023-05-04T12:29:05.402Z,179.99
2023-05-04T12:30:05.369Z,181.57
2023-05-04T12:31:05.390Z,180.57
2023-05-04T12:32:05.426Z,183.40
2023-05-04T12:33:05.422Z,181.53
2023-05-04T12:34:05.454Z,176.39
2023-05-04T12:35:05.464Z,179.66
2023-05-04T12:36:05.396Z,181.75
2023-05-04T12:37:05.390Z,177.27
2023-05-04T12:38:05.419Z,179.59
2023-05-04T12:39:05.489Z,178.46